Time;durP1;ratioP1;P1;durP2;ratioP2;P2;SDS_P1;SDS_P2;PMS_P1;PMS_P2;Temp;Humidity;BMP_temperature;BMP_pressure;BME280_temperature;BME280_humidity;BME280_pressure;Samples;Min_cycle;Max_cycle;Signal;HPM_P1;HPM_P2
2022/07/19 00:01:35;;;;;;;33.38;3.35;;;;;;;23.38;55.39;99954.53;7315247;19;130101;-41
2022/07/19 00:04:01;;;;;;;23.40;2.65;;;;;;;23.38;55.81;99957.16;7315432;19;129107;-44
2022/07/19 00:06:26;;;;;;;24.33;2.58;;;;;;;23.39;55.73;99958.81;7313846;19;128995;-39
2022/07/19 00:08:51;;;;;;;30.77;3.33;;;;;;;23.35;56.07;99953.03;7315209;19;130308;-42
2022/07/19 00:11:17;;;;;;;23.00;2.90;;;;;;;23.38;55.96;99954.53;7315572;19;130147;-42
2022/07/19 00:13:43;;;;;;;33.47;3.60;;;;;;;23.37;55.74;99951.06;7313740;19;129197;-41
2022/07/19 00:16:08;;;;;;;24.25;2.55;;;;;;;23.36;55.70;99954.66;7314546;19;129495;-42
2022/07/19 00:18:34;;;;;;;27.45;3.03;;;;;;;23.37;56.20;99960.75;7313724;19;128875;-41
2022/07/19 00:20:59;;;;;;;32.67;3.28;;;;;;;23.30;56.00;99943.91;7314536;19;130840;-41
2022/07/19 00:23:25;;;;;;;29.83;3.10;;;;;;;23.38;55.95;99952.72;7312890;19;129284;-40
2022/07/19 00:25:50;;;;;;;26.83;2.70;;;;;;;23.38;56.06;99957.97;7313602;19;129010;-45
2022/07/19 00:28:15;;;;;;;48.13;4.55;;;;;;;23.37;55.95;99955.50;7314381;19;129419;-42
2022/07/19 00:30:41;;;;;;;22.40;2.80;;;;;;;23.28;55.75;99936.19;7312396;19;130661;-40
2022/07/19 00:33:09;;;;;;;22.02;2.22;;;;;;;23.35;56.09;99952.19;7313570;19;131245;-41
2022/07/19 00:35:38;;;;;;;29.27;3.17;;;;;;;23.36;56.61;99949.41;7313984;19;128887;-40
2022/07/19 00:38:09;;;;;;;39.60;3.92;;;;;;;23.38;56.29;99949.28;7315496;19;129368;-44
2022/07/19 00:40:36;;;;;;;21.00;2.35;;;;;;;23.36;55.57;99952.03;7314218;19;129561;-43
2022/07/19 00:43:02;;;;;;;29.17;2.95;;;;;;;23.37;56.03;99950.25;7311963;19;129176;-41
2022/07/19 00:45:27;;;;;;;29.30;2.92;;;;;;;23.37;55.86;99945.81;7313220;19;129862;-38
2022/07/19 00:47:53;;;;;;;26.33;2.85;;;;;;;23.37;55.65;99952.88;7314446;19;128967;-40
2022/07/19 00:50:19;;;;;;;21.60;2.47;;;;;;;23.29;55.72;99932.56;7313486;19;130802;-43
2022/07/19 00:52:55;;;;;;;32.03;3.10;;;;;;;23.37;57.34;99945.81;7313126;19;129551;-40
2022/07/19 00:55:22;;;;;;;15.70;2.00;;;;;;;23.27;56.07;99929.25;7311687;19;129347;-43
2022/07/19 00:57:48;;;;;;;15.98;2.25;;;;;;;23.36;55.34;99954.66;7313712;19;128967;-42
2022/07/19 01:00:16;;;;;;;25.27;2.83;;;;;;;23.37;56.02;99951.06;7314434;19;129068;-43
2022/07/19 01:02:42;;;;;;;14.93;2.03;;;;;;;23.36;55.64;99949.41;7312808;19;129483;-43
2022/07/19 01:05:10;;;;;;;18.40;1.98;;;;;;;23.37;56.45;99950.25;7313578;19;128976;-40
2022/07/19 01:07:37;;;;;;;23.83;2.67;;;;;;;23.37;56.27;99945.00;7314343;19;129141;-39
2022/07/19 01:10:04;;;;;;;26.52;3.08;;;;;;;23.37;56.31;99948.44;7312719;19;129444;-43
2022/07/19 01:12:30;;;;;;;20.20;2.45;;;;;;;23.34;55.26;99946.09;7313862;19;130294;-42
2022/07/19 01:14:56;;;;;;;42.25;3.90;;;;;;;23.36;55.33;99940.72;7310958;19;129293;-41
2022/07/19 01:17:22;;;;;;;23.25;2.35;;;;;;;23.36;56.14;99948.56;7313090;19;129175;-43
2022/07/19 01:19:47;;;;;;;35.85;3.67;;;;;;;23.35;55.72;99947.78;7312459;19;129081;-40
2022/07/19 01:22:12;;;;;;;8.32;1.50;;;;;;;23.36;55.66;99953.81;7312207;19;130315;-39
2022/07/19 01:24:38;;;;;;;49.17;4.68;;;;;;;23.36;55.73;99954.66;7313134;19;129048;-42
2022/07/19 01:27:05;;;;;;;19.77;2.40;;;;;;;23.35;55.84;99950.41;7310302;19;129352;-39
2022/07/19 01:29:31;;;;;;;25.60;2.55;;;;;;;23.33;55.95;99939.22;7312700;19;129303;-44
2022/07/19 01:31:57;;;;;;;23.40;2.83;;;;;;;23.34;55.52;99946.09;7312833;19;129247;-43
2022/07/19 01:34:22;;;;;;;38.50;3.50;;;;;;;23.36;55.71;99948.56;7312696;19;129229;-43
2022/07/19 01:36:48;;;;;;;29.95;3.22;;;;;;;23.36;55.61;99944.16;7312194;19;129597;-40
2022/07/19 01:39:13;;;;;;;29.30;3.20;;;;;;;23.37;55.83;99940.56;7309761;19;129775;-43
2022/07/19 01:41:38;;;;;;;34.53;3.22;;;;;;;23.36;55.82;99933.66;7311571;19;129176;-42
2022/07/19 01:44:04;;;;;;;30.95;3.10;;;;;;;23.35;56.13;99934.66;7314279;19;129012;-40
2022/07/19 01:46:29;;;;;;;29.00;2.80;;;;;;;23.35;55.47;99937.28;7310678;19;129608;-40
2022/07/19 01:48:55;;;;;;;22.33;2.45;;;;;;;23.35;56.11;99937.28;7311726;19;129311;-38
2022/07/19 01:51:20;;;;;;;23.48;2.45;;;;;;;23.35;55.77;99931.19;7311978;19;129589;-38
2022/07/19 01:53:46;;;;;;;30.67;3.25;;;;;;;23.36;56.21;99933.66;7310851;19;128675;-41
2022/07/19 01:56:11;;;;;;;29.37;3.07;;;;;;;23.35;56.39;99924.16;7310567;19;129032;-41
2022/07/19 01:58:37;;;;;;;28.52;2.95;;;;;;;23.36;55.46;99930.22;7310371;19;129241;-45
2022/07/19 02:01:03;;;;;;;22.48;2.60;;;;;;;23.35;55.89;99926.78;7312011;19;129875;-43
2022/07/19 02:03:28;;;;;;;24.23;2.53;;;;;;;23.35;56.14;99924.16;7311061;19;129218;-41
2022/07/19 02:05:55;;;;;;;19.63;2.45;;;;;;;23.36;55.57;99931.03;7311266;19;129472;-38
2022/07/19 02:08:20;;;;;;;38.33;3.78;;;;;;;23.35;55.81;99932.03;7310952;19;130117;-38
2022/07/19 02:10:46;;;;;;;32.92;2.90;;;;;;;23.35;56.20;99936.44;7312066;19;129438;-40
2022/07/19 02:13:12;;;;;;;18.17;2.10;;;;;;;23.33;56.25;99927.88;7311201;19;129059;-40
2022/07/19 02:15:37;;;;;;;24.25;2.65;;;;;;;23.34;55.74;99930.34;7311551;19;128860;-38
2022/07/19 02:18:03;;;;;;;36.13;3.53;;;;;;;23.36;55.80;99932.84;7311724;19;130040;-38
2022/07/19 02:20:29;;;;;;;30.45;3.40;;;;;;;23.35;55.59;99929.41;7312187;19;130554;-39
2022/07/19 02:22:54;;;;;;;11.93;1.83;;;;;;;23.36;56.06;99927.59;7311316;19;129052;-43
2022/07/19 02:25:20;;;;;;;16.43;1.97;;;;;;;23.35;56.23;99921.53;7310188;19;129073;-42
2022/07/19 02:27:45;;;;;;;40.30;3.40;;;;;;;23.35;55.41;99929.41;7311764;19;129796;-43
2022/07/19 02:30:12;;;;;;;38.75;3.67;;;;;;;23.27;56.13;99916.16;7310256;19;130331;-41
2022/07/19 02:32:38;;;;;;;;;;;;;;;23.37;58.94;99924.81;7311088;19;129157;-41
2022/07/19 02:35:06;;;;;;;40.70;3.47;;;;;;;23.36;55.76;99922.34;7309848;19;129438;-40
2022/07/19 02:37:31;;;;;;;11.13;1.58;;;;;;;23.31;56.00;99917.53;7309974;19;129931;-44
2022/07/19 02:39:57;;;;;;;19.85;2.17;;;;;;;23.36;55.71;99924.97;7311054;19;129906;-39
2022/07/19 02:42:22;;;;;;;6.68;1.58;;;;;;;23.33;55.44;99920.84;7310822;19;128971;-44
2022/07/19 02:44:47;;;;;;;33.83;3.17;;;;;;;23.34;55.85;99925.09;7310570;19;128848;-41
2022/07/19 02:47:13;;;;;;;25.57;2.80;;;;;;;23.33;56.02;99927.88;7311128;19;129851;-38
2022/07/19 02:49:38;;;;;;;14.38;2.67;;;;;;;23.28;55.66;99917.81;7309863;19;131031;-41
2022/07/19 02:52:04;;;;;;;44.97;4.05;;;;;;;23.34;56.10;99922.47;7310250;19;128909;-38
2022/07/19 02:54:29;;;;;;;18.83;2.22;;;;;;;23.35;56.13;99934.66;7314255;19;129022;-38
2022/07/19 02:56:54;;;;;;;19.95;2.28;;;;;;;23.34;55.74;99930.34;7315621;19;129155;-43
2022/07/19 02:59:20;;;;;;;28.08;2.78;;;;;;;23.35;55.68;99920.69;7316502;19;129284;-42
2022/07/19 03:01:45;;;;;;;30.55;3.28;;;;;;;23.33;55.93;99920.00;7317972;19;129228;-41
2022/07/19 03:04:11;;;;;;;21.33;2.40;;;;;;;23.35;55.61;99923.31;7317053;19;129198;-44
2022/07/19 03:06:36;;;;;;;42.20;4.33;;;;;;;23.34;55.49;99922.47;7314153;19;130943;-39
2022/07/19 03:09:01;;;;;;;25.80;2.83;;;;;;;23.34;55.57;99924.31;7316879;19;129542;-38
2022/07/19 03:11:27;;;;;;;24.57;2.70;;;;;;;23.33;56.13;99922.63;7316624;19;129001;-42
2022/07/19 03:13:52;;;;;;;21.38;2.40;;;;;;;23.34;56.01;99924.31;7315518;19;128986;-41
2022/07/19 03:16:18;;;;;;;21.48;2.22;;;;;;;23.34;55.82;99921.69;7316253;19;130103;-44
2022/07/19 03:18:43;;;;;;;16.50;2.22;;;;;;;23.34;55.68;99925.09;7313698;19;130666;-43
2022/07/19 03:21:08;;;;;;;26.42;2.83;;;;;;;23.35;55.64;99926.78;7316715;19;129104;-43
2022/07/19 03:23:37;;;;;;;37.33;3.57;;;;;;;23.34;55.65;99926.94;7313929;19;129110;-41
2022/07/19 03:26:04;;;;;;;29.02;3.08;;;;;;;23.34;55.40;99929.56;7312661;19;130507;-38
2022/07/19 03:28:29;;;;;;;38.55;3.63;;;;;;;23.34;55.84;99927.72;7311802;19;130777;-41
2022/07/19 03:30:55;;;;;;;42.90;4.10;;;;;;;23.34;56.12;99930.34;7315412;19;128965;-44
2022/07/19 03:33:20;;;;;;;24.07;2.50;;;;;;;23.34;55.42;99930.34;7315468;19;129113;-43
2022/07/19 03:35:46;;;;;;;18.83;2.38;;;;;;;23.35;55.70;99929.41;7313513;19;129029;-43
2022/07/19 03:38:13;;;;;;;62.08;5.38;;;;;;;23.34;55.90;99935.59;7312363;19;129783;-44
2022/07/19 03:40:39;;;;;;;;;;;;;;;23.36;58.63;99927.59;7314948;19;129054;-43
2022/07/19 03:43:05;;;;;;;26.05;2.60;;;;;;;23.36;55.56;99935.47;7315572;19;130798;-42
2022/07/19 03:45:30;;;;;;;21.60;2.63;;;;;;;23.26;55.96;99919.72;7314146;19;129125;-43
2022/07/19 03:47:56;;;;;;;31.83;3.28;;;;;;;23.35;55.81;99936.44;7315382;19;129817;-43
2022/07/19 03:50:21;;;;;;;22.25;2.45;;;;;;;23.36;55.73;99945.97;7315096;19;129794;-40
2022/07/19 03:52:46;;;;;;;32.42;3.35;;;;;;;23.34;56.22;99935.59;7314393;19;129676;-43
2022/07/19 03:55:12;;;;;;;24.17;2.83;;;;;;;23.33;55.53;99939.22;7314753;19;130336;-43
2022/07/19 03:57:37;;;;;;;26.02;3.10;;;;;;;23.33;55.60;99941.84;7314501;19;130681;-39
2022/07/19 04:00:04;;;;;;;20.40;2.15;;;;;;;23.23;56.32;99927.88;7314732;19;129310;-39
2022/07/19 04:02:30;;;;;;;24.85;2.70;;;;;;;23.32;55.58;99940.16;7312398;19;129233;-41
2022/07/19 04:04:55;;;;;;;29.40;3.20;;;;;;;23.27;55.95;99931.88;7312842;19;130074;-38
2022/07/19 04:07:21;;;;;;;24.45;2.55;;;;;;;23.35;56.06;99941.69;7314488;19;129230;-44
2022/07/19 04:09:46;;;;;;;34.00;3.37;;;;;;;23.35;56.02;99944.31;7313080;19;130372;-39
2022/07/19 04:12:11;;;;;;;19.40;2.25;;;;;;;23.35;55.59;99950.41;7313609;19;129734;-40
2022/07/19 04:14:37;;;;;;;31.47;3.10;;;;;;;23.35;55.96;99953.03;7313664;19;128989;-39
2022/07/19 04:17:04;;;;;;;31.92;3.20;;;;;;;23.35;56.04;99950.41;7311096;19;131197;-43
2022/07/19 04:19:30;;;;;;;23.98;2.67;;;;;;;23.34;56.26;99945.28;7314814;19;128952;-40
2022/07/19 04:21:55;;;;;;;37.10;3.78;;;;;;;23.35;55.88;99944.31;7313222;19;129008;-37
2022/07/19 04:24:20;;;;;;;23.92;2.22;;;;;;;23.25;55.80;99921.50;7315573;19;129606;-40
2022/07/19 04:26:46;;;;;;;50.17;4.47;;;;;;;23.34;55.56;99940.84;7312038;19;129719;-38
2022/07/19 04:29:11;;;;;;;60.00;5.45;;;;;;;23.28;55.79;99930.94;7311683;19;130253;-42
2022/07/19 04:31:37;;;;;;;50.63;4.43;;;;;;;23.35;55.97;99945.16;7313922;19;130007;-38
2022/07/19 04:34:02;;;;;;;27.05;3.10;;;;;;;23.34;55.41;99940.84;7313484;19;129874;-41
2022/07/19 04:36:27;;;;;;;18.73;2.42;;;;;;;23.35;55.63;99946.94;7311235;19;129395;-37
2022/07/19 04:38:53;;;;;;;31.55;3.13;;;;;;;23.35;56.67;99937.28;7313620;19;130638;-41
2022/07/19 04:41:18;;;;;;;22.83;2.47;;;;;;;23.36;56.40;99941.53;7313473;19;129257;-39
2022/07/19 04:43:43;;;;;;;18.70;2.58;;;;;;;23.34;55.92;99940.84;7314648;19;129432;-42
2022/07/19 04:46:09;;;;;;;42.67;4.57;;;;;;;23.25;56.20;99928.56;7311029;19;130719;-41
2022/07/19 04:48:34;;;;;;;26.50;3.03;;;;;;;23.36;56.16;99946.78;7312837;19;130207;-42
2022/07/19 04:50:59;;;;;;;27.55;3.25;;;;;;;23.37;56.35;99943.19;7313097;19;129391;-42
2022/07/19 04:53:25;;;;;;;19.48;2.75;;;;;;;23.33;55.32;99931.34;7311369;19;130854;-39
2022/07/19 04:55:50;;;;;;;59.92;5.28;;;;;;;23.31;54.84;99941.16;7310784;19;129607;-40
2022/07/19 04:58:16;;;;;;;53.90;5.47;;;;;;;23.33;55.70;99944.47;7310390;19;129153;-40
2022/07/19 05:00:41;;;;;;;34.93;3.67;;;;;;;23.31;55.55;99946.38;7312672;19;129114;-42
2022/07/19 05:03:07;;;;;;;32.70;3.75;;;;;;;23.32;56.20;99942.78;7312613;19;130277;-40
2022/07/19 05:05:32;;;;;;;33.47;3.72;;;;;;;23.33;56.35;99935.75;7311460;19;129621;-38
2022/07/19 05:07:57;;;;;;;20.27;2.60;;;;;;;23.31;56.41;99935.91;7312562;19;128889;-41
2022/07/19 05:10:23;;;;;;;34.55;4.30;;;;;;;23.34;56.96;99940.84;7310829;19;128985;-44
2022/07/19 05:12:48;;;;;;;32.58;3.72;;;;;;;23.34;56.92;99940.84;7312589;19;130221;-40
2022/07/19 05:15:14;;;;;;;53.20;5.22;;;;;;;23.35;56.59;99936.44;7309015;19;131304;-41
2022/07/19 05:17:39;;;;;;;33.97;3.35;;;;;;;23.35;56.81;99942.53;7309566;19;129293;-41
2022/07/19 05:20:06;;;;;;;54.75;5.07;;;;;;;23.34;57.11;99940.84;7309619;19;129775;-38
2022/07/19 05:22:32;;;;;;;26.15;3.13;;;;;;;23.38;57.49;99947.47;7311685;19;130165;-44
2022/07/19 05:24:58;;;;;;;16.42;2.28;;;;;;;23.37;56.93;99945.81;7312461;19;129269;-41
2022/07/19 05:27:24;;;;;;;31.13;3.70;;;;;;;23.36;57.26;99936.28;7309168;19;129367;-43
2022/07/19 05:29:49;;;;;;;30.77;3.08;;;;;;;23.39;56.69;99938.63;7312914;19;129998;-40
2022/07/19 05:32:15;;;;;;;28.48;3.25;;;;;;;23.40;56.86;99937.69;7310711;19;130041;-42
2022/07/19 05:34:40;;;;;;;111.32;10.23;;;;;;;23.40;56.85;99936.84;7302487;19;129299;-38
2022/07/19 05:37:06;;;;;;;93.18;8.10;;;;;;;23.39;57.04;99941.25;7300491;19;130111;-42
2022/07/19 05:39:31;;;;;;;43.65;4.05;;;;;;;23.39;56.36;99943.88;7305540;19;128983;-38
2022/07/19 05:41:57;;;;;;;64.93;5.55;;;;;;;23.31;56.26;99930.66;7302661;19;129962;-38
2022/07/19 05:44:23;;;;;;;33.93;3.33;;;;;;;23.40;56.27;99945.56;7310765;19;129023;-44
2022/07/19 05:46:48;;;;;;;25.42;3.10;;;;;;;23.39;56.22;99943.88;7309650;19;129035;-36
2022/07/19 05:49:14;;;;;;;43.45;4.30;;;;;;;23.40;56.46;99942.09;7310189;19;130881;-43
2022/07/19 05:51:39;;;;;;;36.67;4.13;;;;;;;23.40;56.41;99939.47;7311536;19;129110;-44
2022/07/19 05:54:07;;;;;;;22.50;2.70;;;;;;;23.39;57.28;99937.81;7311540;19;129210;-41
2022/07/19 05:56:32;;;;;;;21.20;2.60;;;;;;;23.36;56.39;99928.44;7309104;19;129119;-39
2022/07/19 05:58:58;;;;;;;29.52;3.30;;;;;;;23.38;56.95;99931.75;7310531;19;128858;-42
2022/07/19 06:01:24;;;;;;;26.77;3.17;;;;;;;23.37;56.57;99937.94;7308927;19;129286;-40
2022/07/19 06:03:55;;;;;;;39.42;4.18;;;;;;;23.29;58.18;99922.09;7310751;19;130335;-41
2022/07/19 06:06:21;;;;;;;55.35;4.68;;;;;;;23.37;56.81;99940.56;7309042;19;128846;-41
2022/07/19 06:08:47;;;;;;;37.97;4.13;;;;;;;23.37;56.71;99940.56;7308614;19;129366;-39
2022/07/19 06:11:15;;;;;;;31.67;3.47;;;;;;;23.36;56.36;99938.09;7311857;19;130972;-39
2022/07/19 06:13:41;;;;;;;29.17;3.40;;;;;;;23.34;57.08;99940.03;7308949;19;130387;-43
2022/07/19 06:16:08;;;;;;;19.83;2.90;;;;;;;23.37;56.61;99937.94;7308707;19;129808;-40
2022/07/19 06:18:34;;;;;;;31.15;3.58;;;;;;;23.36;56.72;99943.34;7309477;19;130488;-44
2022/07/19 06:21:07;;;;;;;28.65;3.22;;;;;;;23.37;57.78;99937.94;7310229;19;130072;-43
2022/07/19 06:23:33;;;;;;;33.88;3.63;;;;;;;23.36;56.75;99938.91;7310366;19;130375;-40
2022/07/19 06:25:58;;;;;;;12.52;2.15;;;;;;;23.36;57.23;99949.41;7309448;19;129197;-40
2022/07/19 06:28:25;;;;;;;21.65;2.55;;;;;;;23.36;57.50;99944.16;7313476;19;129706;-42
2022/07/19 06:30:50;;;;;;;42.35;4.25;;;;;;;23.36;57.35;99946.78;7316424;19;130243;-43
2022/07/19 06:33:15;;;;;;;43.38;4.28;;;;;;;23.35;57.36;99941.69;7318252;19;129120;-44
2022/07/19 06:35:41;;;;;;;62.20;5.55;;;;;;;23.26;56.89;99924.97;7314265;19;129023;-42
2022/07/19 06:38:07;;;;;;;16.10;2.47;;;;;;;23.35;56.84;99939.91;7316553;19;129006;-43
2022/07/19 06:40:32;;;;;;;27.57;2.93;;;;;;;23.33;56.73;99939.22;7317882;19;129569;-40
2022/07/19 06:42:58;;;;;;;30.60;3.27;;;;;;;23.25;56.73;99926.75;7318055;19;130327;-41
2022/07/19 06:45:23;;;;;;;29.02;3.40;;;;;;;23.34;56.81;99943.47;7313551;19;129439;-38
2022/07/19 06:47:50;;;;;;;23.50;2.75;;;;;;;23.34;57.28;99938.22;7317385;19;129855;-40
2022/07/19 06:50:16;;;;;;;20.75;2.42;;;;;;;23.33;56.63;99944.47;7315776;19;130267;-41
2022/07/19 06:52:41;;;;;;;23.63;3.00;;;;;;;23.34;57.04;99943.47;7318474;19;131469;-38
2022/07/19 06:55:07;;;;;;;36.15;3.65;;;;;;;23.25;56.88;99926.75;7316641;19;129101;-43
2022/07/19 06:57:33;;;;;;;26.33;3.10;;;;;;;23.34;57.25;99945.28;7318408;19;129406;-40
2022/07/19 06:59:58;;;;;;;24.15;2.67;;;;;;;23.34;56.64;99946.09;7317338;19;129485;-39
2022/07/19 07:02:24;;;;;;;38.77;3.77;;;;;;;23.33;57.31;99939.22;7317321;19;129326;-44
2022/07/19 07:04:49;;;;;;;22.58;2.47;;;;;;;23.33;56.92;99941.00;7317683;19;129220;-42
2022/07/19 07:07:14;;;;;;;22.65;2.55;;;;;;;23.34;57.40;99942.66;7318490;19;129101;-38
2022/07/19 07:09:40;;;;;;;21.73;2.53;;;;;;;23.33;57.57;99939.22;7317304;19;130798;-43
2022/07/19 07:12:06;;;;;;;11.77;2.08;;;;;;;23.23;57.42;99922.63;7318491;19;129254;-41
2022/07/19 07:14:31;;;;;;;27.55;3.08;;;;;;;23.32;57.09;99940.16;7317699;19;129526;-38
2022/07/19 07:16:56;;;;;;;21.20;2.37;;;;;;;23.33;57.40;99933.97;7314499;19;130268;-42
2022/07/19 07:19:22;;;;;;;22.33;2.65;;;;;;;23.24;57.33;99921.66;7316074;19;130418;-39
2022/07/19 07:21:48;;;;;;;30.30;3.25;;;;;;;23.31;57.48;99930.66;7315163;19;130883;-44
2022/07/19 07:24:14;;;;;;;24.40;2.60;;;;;;;23.32;57.34;99937.53;7315568;19;128886;-42
2022/07/19 07:26:39;;;;;;;25.13;2.88;;;;;;;23.34;57.91;99934.81;7313260;19;130599;-42
2022/07/19 07:29:04;;;;;;;24.40;3.03;;;;;;;23.32;57.02;99927.03;7316287;19;129481;-42
2022/07/19 07:31:30;;;;;;;12.45;1.83;;;;;;;23.32;57.57;99921.78;7316807;19;130916;-41
2022/07/19 07:33:55;;;;;;;29.65;3.25;;;;;;;23.31;57.53;99922.78;7316508;19;128972;-42
2022/07/19 07:36:20;;;;;;;21.58;2.53;;;;;;;23.24;57.38;99909.38;7314804;19;129365;-44
2022/07/19 07:38:46;;;;;;;23.17;2.63;;;;;;;23.32;57.17;99927.03;7314337;19;129032;-42
2022/07/19 07:41:11;;;;;;;27.27;3.15;;;;;;;23.32;57.92;99921.78;7316049;19;129248;-39
2022/07/19 07:43:36;;;;;;;20.90;2.50;;;;;;;23.31;57.65;99922.78;7316771;19;128789;-41
2022/07/19 07:46:02;;;;;;;43.63;3.83;;;;;;;23.22;57.93;99910.50;7314508;19;129460;-43
2022/07/19 07:48:28;;;;;;;59.50;5.65;;;;;;;23.31;57.65;99921.94;7310235;19;129138;-42
2022/07/19 07:50:53;;;;;;;47.53;4.45;;;;;;;23.31;57.00;99925.41;7310618;19;129688;-42
2022/07/19 07:53:18;;;;;;;20.17;2.20;;;;;;;23.32;57.63;99921.78;7311527;19;129138;-43
2022/07/19 07:55:44;;;;;;;24.63;2.65;;;;;;;23.29;58.01;99919.47;7312814;19;129099;-41
2022/07/19 07:58:11;;;;;;;44.43;4.67;;;;;;;23.31;57.27;99919.31;7314917;19;130825;-43
2022/07/19 08:00:37;;;;;;;39.13;3.58;;;;;;;23.32;57.47;99927.03;7314977;19;129705;-35
2022/07/19 08:03:03;;;;;;;;;;;;;;;23.35;60.31;99920.69;7313023;19;129565;-42
2022/07/19 08:05:29;;;;;;;20.48;2.45;;;;;;;23.31;57.40;99920.16;7316119;19;129962;-44
2022/07/19 08:07:54;;;;;;;25.43;2.57;;;;;;;23.31;57.89;99925.41;7314895;19;129547;-43
2022/07/19 08:10:22;;;;;;;20.23;2.35;;;;;;;23.29;57.76;99922.09;7311570;19;129520;-40
2022/07/19 08:12:47;;;;;;;25.40;2.55;;;;;;;23.31;57.73;99925.41;7315688;19;129019;-36
2022/07/19 08:15:13;;;;;;;32.45;3.08;;;;;;;23.31;57.36;99922.78;7313834;19;128985;-38
2022/07/19 08:17:38;;;;;;;31.70;2.90;;;;;;;23.31;58.13;99914.91;7314664;19;129417;-37
2022/07/19 08:20:04;;;;;;;7.55;1.27;;;;;;;23.30;57.41;99918.50;7314644;19;129725;-40
2022/07/19 08:22:29;;;;;;;29.20;3.13;;;;;;;23.30;58.17;99918.50;7316177;19;129426;-38
2022/07/19 08:24:55;;;;;;;22.25;2.08;;;;;;;23.31;58.22;99919.31;7315494;19;128794;-44
2022/07/19 08:27:20;;;;;;;20.75;2.22;;;;;;;23.29;58.10;99911.59;7315644;19;130251;-41
2022/07/19 08:29:45;;;;;;;40.00;3.80;;;;;;;23.30;58.15;99904.56;7314046;19;129046;-39
2022/07/19 08:32:11;;;;;;;13.77;2.08;;;;;;;23.30;58.28;99908.03;7315545;19;128558;-45
2022/07/19 08:34:36;;;;;;;22.37;2.27;;;;;;;23.31;58.38;99909.66;7315758;19;129088;-43
2022/07/19 08:37:03;;;;;;;20.45;2.25;;;;;;;23.31;57.76;99901.78;7311705;19;129994;-40
2022/07/19 08:39:28;;;;;;;20.17;2.28;;;;;;;23.30;58.04;99897.53;7314927;19;130578;-42
2022/07/19 08:41:54;;;;;;;33.95;3.30;;;;;;;23.29;57.88;99901.09;7315140;19;129241;-40
2022/07/19 08:44:21;;;;;;;9.02;1.38;;;;;;;23.29;57.87;99893.22;7315392;19;129285;-45
2022/07/19 08:46:48;;;;;;;40.10;3.47;;;;;;;23.28;58.56;99899.47;7312692;19;129600;-41
2022/07/19 08:49:14;;;;;;;22.63;2.55;;;;;;;23.29;57.80;99890.59;7315182;19;130226;-43
2022/07/19 08:51:41;;;;;;;;;;;;;;;23.32;60.95;99895.56;7312662;19;128891;-40
2022/07/19 08:54:06;;;;;;;21.30;2.22;;;;;;;23.30;58.49;99892.28;7315047;19;129442;-40
2022/07/19 08:59:15;;;;;;;19.58;2.25;;;;;;;23.27;58.56;99887.28;7314356;19;129156;-43
2022/07/19 09:01:41;;;;;;;23.45;2.45;;;;;;;23.28;58.56;99888.97;7313863;19;128997;-42
2022/07/19 09:04:15;;;;;;;30.27;2.70;;;;;;;23.29;59.43;99879.31;7314123;19;128887;-41
2022/07/19 09:06:42;;;;;;;14.73;1.90;;;;;;;23.28;58.45;99893.38;7311922;19;129911;-40
2022/07/19 09:09:08;;;;;;;25.92;2.80;;;;;;;23.29;58.66;99890.59;7314055;19;129266;-36
2022/07/19 09:11:36;;;;;;;20.08;2.05;;;;;;;23.29;58.26;99887.97;7314685;19;129128;-40
2022/07/19 09:14:06;;;;;;;20.38;2.10;;;;;;;23.26;59.21;99880.38;7314188;19;129110;-39
2022/07/19 09:16:49;;;;;;;26.58;2.60;;;;;;;23.27;60.18;99892.53;7311195;19;129604;-39
2022/07/19 09:19:15;;;;;;;11.98;1.90;;;;;;;23.29;58.47;99890.59;7312405;19;129408;-40
2022/07/19 09:22:14;;;;;;;34.08;3.30;;;;;;;23.28;60.76;99886.34;7313827;19;129105;-34
2022/07/19 09:24:46;;;;;;;22.55;2.38;;;;;;;23.27;59.37;99891.72;7312331;19;129191;-39
2022/07/19 09:27:17;;;;;;;23.30;2.58;;;;;;;23.24;58.87;99877.06;7310612;19;130136;-41
2022/07/19 09:29:45;;;;;;;26.80;2.67;;;;;;;23.27;58.39;99882.03;7312799;19;129864;-42
2022/07/19 09:32:16;;;;;;;33.25;3.20;;;;;;;23.25;58.54;99878.72;7314011;19;129285;-41
2022/07/19 09:34:48;;;;;;;20.08;2.17;;;;;;;23.25;59.63;99876.91;7312773;19;130197;-40
2022/07/19 09:37:13;;;;;;;23.75;2.58;;;;;;;23.17;58.44;99862.88;7313799;19;129144;-38
2022/07/19 09:39:41;;;;;;;19.02;2.13;;;;;;;23.27;58.03;99876.78;7311401;19;129805;-43
2022/07/19 09:42:09;;;;;;;22.58;2.20;;;;;;;23.26;59.07;99875.13;7313466;19;129507;-38
2022/07/19 09:44:35;;;;;;;21.13;2.25;;;;;;;23.24;58.23;99877.06;7313932;19;129218;-41
2022/07/19 09:47:01;;;;;;;21.50;2.22;;;;;;;23.25;58.95;99873.47;7311335;19;130041;-39
2022/07/19 09:49:27;;;;;;;20.55;2.10;;;;;;;23.18;59.09;99861.91;7312778;19;129727;-40
2022/07/19 09:51:54;;;;;;;18.23;1.97;;;;;;;23.26;58.36;99872.50;7313135;19;128994;-43
2022/07/19 09:54:23;;;;;;;;;;;;;;;23.27;60.75;99865.50;7314441;19;129192;-41
2022/07/19 09:56:52;;;;;;;40.22;3.45;;;;;;;23.24;58.84;99866.56;7309318;19;129965;-42
2022/07/19 09:59:19;;;;;;;24.92;2.63;;;;;;;23.25;58.06;99869.03;7312004;19;130386;-42
2022/07/19 10:01:48;;;;;;;25.58;2.55;;;;;;;23.25;58.57;99868.22;7312883;19;128830;-41
2022/07/19 10:04:15;;;;;;;13.85;1.90;;;;;;;23.26;58.40;99862.00;7316705;19;130153;-43
2022/07/19 10:06:42;;;;;;;24.25;2.40;;;;;;;23.27;58.60;99860.25;7317374;19;129138;-42
2022/07/19 10:09:11;;;;;;;28.08;2.65;;;;;;;23.25;58.96;99860.38;7317244;19;129190;-42
2022/07/19 10:11:38;;;;;;;28.88;2.85;;;;;;;23.25;58.83;99858.53;7320783;19;129109;-40
2022/07/19 10:14:03;;;;;;;10.73;1.33;;;;;;;23.28;58.80;99859.28;7319215;19;128899;-39
2022/07/19 10:16:55;;;;;;;28.08;2.85;;;;;;;23.29;61.13;99863.56;7316878;19;129432;-42
2022/07/19 10:19:32;;;;;;;17.88;1.80;;;;;;;23.24;58.92;99854.28;7318513;19;130225;-42
2022/07/19 10:21:58;;;;;;;19.00;2.05;;;;;;;23.28;58.26;99861.91;7319945;19;129161;-37
2022/07/19 10:24:52;;;;;;;21.35;2.28;;;;;;;23.26;61.10;99851.50;7319203;19;129232;-41
2022/07/19 10:27:26;;;;;;;20.10;2.40;;;;;;;23.25;59.80;99848.06;7317493;19;130683;-39
2022/07/19 10:30:12;;;;;;;23.10;2.33;;;;;;;23.26;58.97;99841.03;7318731;19;129102;-43
2022/07/19 10:32:40;;;;;;;25.35;2.60;;;;;;;23.17;58.53;99826.16;7319091;19;128752;-40
2022/07/19 10:35:16;;;;;;;19.88;2.30;;;;;;;23.24;60.42;99841.16;7318266;19;129240;-38
2022/07/19 10:37:43;;;;;;;26.33;2.63;;;;;;;23.25;59.03;99847.25;7319134;19;129067;-40
2022/07/19 10:40:09;;;;;;;19.60;2.00;;;;;;;23.26;59.14;99848.88;7317753;19;129656;-41
2022/07/19 10:42:35;;;;;;;20.63;2.00;;;;;;;23.26;59.02;99838.41;7318618;19;128984;-39
2022/07/19 10:45:00;;;;;;;25.42;2.67;;;;;;;23.27;59.09;99840.06;7317412;19;129658;-43
2022/07/19 10:47:31;;;;;;;18.83;2.05;;;;;;;23.26;60.11;99841.03;7319134;19;130190;-39
2022/07/19 10:50:10;;;;;;;39.75;3.40;;;;;;;23.25;60.10;99836.75;7316537;19;130437;-42
2022/07/19 10:52:41;;;;;;;20.17;2.13;;;;;;;23.25;58.97;99834.13;7319617;19;128827;-43
2022/07/19 10:55:25;;;;;;;32.92;2.95;;;;;;;23.17;60.07;99818.28;7318687;19;129832;-41
2022/07/19 10:58:05;;;;;;;21.38;2.05;;;;;;;23.27;58.96;99840.06;7318348;19;129370;-42
2022/07/19 11:00:40;;;;;;;6.15;1.15;;;;;;;23.28;58.60;99840.91;7318550;19;130510;-41
2022/07/19 11:03:20;;;;;;;20.63;2.03;;;;;;;23.27;60.60;99832.19;7317982;19;128954;-42
2022/07/19 11:05:49;;;;;;;30.52;2.90;;;;;;;23.25;58.65;99827.06;7316720;19;131512;-39
2022/07/19 11:08:15;;;;;;;25.98;2.83;;;;;;;23.25;58.27;99827.06;7317096;19;129509;-43
2022/07/19 11:10:40;;;;;;;20.73;2.13;;;;;;;23.26;58.65;99827.91;7317486;19;129808;-38
2022/07/19 11:13:05;;;;;;;19.97;2.10;;;;;;;23.24;58.51;99819.34;7317690;19;129035;-43
2022/07/19 11:15:32;;;;;;;10.93;1.45;;;;;;;23.21;58.75;99817.00;7314805;19;129351;-42
2022/07/19 11:18:01;;;;;;;23.98;2.30;;;;;;;23.24;58.43;99819.34;7318010;19;130269;-44
2022/07/19 11:20:29;;;;;;;26.05;2.80;;;;;;;23.24;59.45;99803.59;7313663;19;130386;-37